createdAt,value
2023-05-27T00:02:08.006Z,133200.0
2023-05-27T00:07:07.997Z,133220.0
2023-05-27T00:12:08.008Z,133240.0
2023-05-27T00:17:08.022Z,133250.0
2023-05-27T00:22:08.004Z,133260.0
2023-05-27T00:27:08.004Z,133270.0
2023-05-27T00:32:08.044Z,133280.0
2023-05-27T00:37:08.004Z,133300.0
2023-05-27T00:42:08.012Z,133310.0
2023-05-27T00:47:08.001Z,133320.0
2023-05-27T00:52:08.024Z,133320.0
2023-05-27T00:57:08.021Z,133360.0
2023-05-27T01:02:08.078Z,133350.0
2023-05-27T01:07:08.030Z,133370.0
2023-05-27T01:12:08.024Z,133390.0
2023-05-27T01:17:08.099Z,133400.0
2023-05-27T01:22:08.025Z,133430.0
2023-05-27T01:27:08.027Z,133450.0
2023-05-27T01:32:08.027Z,133440.0
2023-05-27T01:37:08.017Z,133450.0
2023-05-27T01:42:08.030Z,133470.0
2023-05-27T01:47:08.112Z,133480.0
2023-05-27T01:52:08.032Z,133470.0
2023-05-27T01:57:08.038Z,133490.0
2023-05-27T02:02:08.029Z,133500.0
2023-05-27T02:07:08.040Z,133520.0
2023-05-27T02:12:08.045Z,133530.0
2023-05-27T02:17:08.071Z,133540.0
2023-05-27T02:22:08.030Z,133530.0
2023-05-27T02:27:08.044Z,133550.0
2023-05-27T02:32:08.061Z,133550.0
2023-05-27T02:37:08.045Z,133560.0
2023-05-27T02:42:08.043Z,133580.0
2023-05-27T02:47:08.040Z,133590.0
2023-05-27T02:52:08.048Z,133610.0
2023-05-27T02:57:08.044Z,133600.0
2023-05-27T03:02:08.174Z,133620.0
2023-05-27T03:07:08.049Z,133620.0
2023-05-27T03:12:08.045Z,133630.0
2023-05-27T03:17:08.051Z,133630.0
2023-05-27T03:22:08.049Z,133650.0
2023-05-27T03:27:08.065Z,133660.0
2023-05-27T03:32:08.156Z,133660.0
2023-05-27T03:37:08.066Z,133650.0
2023-05-27T03:42:08.049Z,133640.0
2023-05-27T03:47:08.058Z,133650.0
2023-05-27T03:52:08.073Z,133650.0
2023-05-27T03:57:08.073Z,133640.0
2023-05-27T04:02:08.112Z,133640.0
2023-05-27T04:07:08.067Z,133630.0
2023-05-27T04:12:08.077Z,133630.0
2023-05-27T04:17:08.078Z,133620.0
2023-05-27T04:22:08.088Z,133620.0
2023-05-27T04:27:08.072Z,133610.0
2023-05-27T04:32:08.186Z,133590.0
2023-05-27T04:37:08.066Z,133590.0
2023-05-27T04:42:08.074Z,133560.0
2023-05-27T04:47:08.095Z,133510.0
2023-05-27T04:52:08.146Z,133480.0
2023-05-27T04:57:08.081Z,133440.0
2023-05-27T05:02:08.087Z,133410.0
2023-05-27T05:07:08.097Z,133390.0
2023-05-27T05:12:08.105Z,133380.0
2023-05-27T05:17:08.081Z,133350.0
2023-05-27T05:22:08.092Z,133330.0
2023-05-27T05:27:08.106Z,133310.0
2023-05-27T05:32:08.185Z,133290.0
2023-05-27T05:37:08.094Z,133270.0
2023-05-27T05:42:08.102Z,133220.0
2023-05-27T05:47:08.100Z,133180.0
2023-05-27T05:52:08.106Z,133140.0
2023-05-27T05:57:08.113Z,133090.0
2023-05-27T06:02:08.110Z,133040.0
2023-05-27T06:07:08.104Z,132990.0
2023-05-27T06:12:08.121Z,132920.0
2023-05-27T06:17:08.119Z,132850.0
2023-05-27T06:22:08.117Z,132820.0
2023-05-27T06:27:08.137Z,132760.0
2023-05-27T06:32:08.198Z,132720.0
2023-05-27T06:37:08.149Z,132670.0
2023-05-27T06:42:08.169Z,132640.0
2023-05-27T06:47:08.133Z,132620.0
2023-05-27T06:52:10.229Z,132550.0
2023-05-27T06:57:08.148Z,132490.0
2023-05-27T07:02:08.152Z,132420.0
2023-05-27T07:07:08.151Z,132400.0
2023-05-27T07:12:08.180Z,132340.0
2023-05-27T07:17:08.156Z,132260.0
2023-05-27T07:22:08.157Z,132190.0
2023-05-27T07:27:08.193Z,132160.0
2023-05-27T07:32:08.164Z,132110.0
2023-05-27T07:37:08.174Z,132080.0
2023-05-27T07:42:08.165Z,132050.0
2023-05-27T07:47:08.166Z,132010.0
2023-05-27T07:52:08.175Z,131960.0
2023-05-27T07:57:08.180Z,131920.0
2023-05-27T08:02:08.212Z,131860.0
2023-05-27T08:07:08.174Z,131840.0
2023-05-27T08:12:08.183Z,131810.0
2023-05-27T08:17:08.220Z,131780.0
2023-05-27T08:22:08.186Z,131670.0
2023-05-27T08:27:08.199Z,131650.0
2023-05-27T08:32:08.322Z,131580.0
2023-05-27T08:37:08.196Z,131540.0
2023-05-27T08:42:08.202Z,131470.0
2023-05-27T08:47:08.214Z,131420.0
2023-05-27T08:52:08.225Z,131390.0
2023-05-27T08:57:08.239Z,131360.0
2023-05-27T09:02:08.269Z,131290.0
2023-05-27T09:07:08.219Z,131280.0
2023-05-27T09:12:08.217Z,131290.0
2023-05-27T09:17:08.219Z,131290.0
2023-05-27T09:22:08.224Z,131270.0
2023-05-27T09:27:08.228Z,131210.0
2023-05-27T09:32:08.228Z,131110.0
2023-05-27T09:37:08.235Z,130990.0
2023-05-27T09:42:08.240Z,130930.0
2023-05-27T09:47:08.247Z,130930.0
2023-05-27T09:52:08.238Z,130910.0
2023-05-27T09:57:08.250Z,130860.0
2023-05-27T10:02:08.247Z,130790.0
2023-05-27T10:07:08.531Z,130770.0
2023-05-27T10:12:08.241Z,130760.0
2023-05-27T10:17:08.362Z,130710.0
2023-05-27T10:22:08.262Z,130660.0
2023-05-27T10:27:08.256Z,130640.0
2023-05-27T10:32:08.265Z,130610.0
2023-05-27T10:37:08.299Z,130550.0
2023-05-27T10:42:08.286Z,130510.0
2023-05-27T10:47:08.330Z,130490.0
2023-05-27T10:52:08.267Z,130490.0
2023-05-27T10:57:08.272Z,130490.0
2023-05-27T11:02:08.383Z,130410.0
2023-05-27T11:07:08.294Z,130330.0
2023-05-27T11:12:08.300Z,130330.0
2023-05-27T11:17:08.289Z,130300.0
2023-05-27T11:22:08.295Z,130260.0
2023-05-27T11:27:08.291Z,130270.0
2023-05-27T11:32:08.309Z,130260.0
2023-05-27T11:37:08.298Z,130200.0
2023-05-27T11:42:08.304Z,130130.0
2023-05-27T11:47:08.304Z,130080.0
2023-05-27T11:52:08.308Z,130010.0
2023-05-27T11:57:08.319Z,130000.0
2023-05-27T12:02:08.374Z,129950.0
2023-05-27T12:07:16.324Z,129860.0
2023-05-27T12:12:08.316Z,129850.0
2023-05-27T12:17:08.325Z,129830.0
2023-05-27T12:22:08.338Z,129790.0
2023-05-27T12:27:08.328Z,129740.0
2023-05-27T12:32:08.326Z,129730.0
2023-05-27T12:37:09.625Z,129760.0
2023-05-27T12:42:08.331Z,129800.0
2023-05-27T12:47:08.470Z,129850.0
2023-05-27T12:52:08.339Z,129790.0
2023-05-27T12:57:08.330Z,129770.0
2023-05-27T13:02:08.348Z,129720.0
2023-05-27T13:07:08.354Z,129630.0
2023-05-27T13:12:08.372Z,129650.0
2023-05-27T13:17:08.421Z,129610.0
2023-05-27T13:22:08.367Z,129550.0
2023-05-27T13:27:08.350Z,129540.0
2023-05-27T13:32:08.428Z,129530.0
2023-05-27T13:42:08.358Z,129460.0
2023-05-27T13:47:08.364Z,129450.0
2023-05-27T13:52:08.357Z,129480.0
2023-05-27T13:57:08.400Z,129480.0
2023-05-27T14:02:08.413Z,129420.0
2023-05-27T14:07:08.368Z,129330.0
2023-05-27T14:12:08.370Z,129320.0
2023-05-27T14:17:08.380Z,129320.0
2023-05-27T14:22:08.377Z,129280.0
2023-05-27T14:27:08.383Z,129270.0
2023-05-27T14:32:08.524Z,129280.0
2023-05-27T14:37:09.598Z,129220.0
2023-05-27T14:42:08.396Z,129220.0
2023-05-27T14:47:08.441Z,129170.0
2023-05-27T14:52:08.399Z,129150.0
2023-05-27T14:57:08.396Z,129160.0
2023-05-27T15:02:08.393Z,129140.0
2023-05-27T15:07:08.413Z,129070.0
2023-05-27T15:12:08.399Z,129040.0
2023-05-27T15:17:08.470Z,129050.0
2023-05-27T15:22:08.417Z,129050.0
2023-05-27T15:27:08.421Z,128990.0
2023-05-27T15:32:08.411Z,128970.0
2023-05-27T15:37:08.416Z,128940.0
2023-05-27T15:42:08.430Z,129020.0
2023-05-27T15:47:08.522Z,128920.0
2023-05-27T15:52:08.426Z,128920.0
2023-05-27T15:57:08.457Z,128900.0
2023-05-27T16:02:08.535Z,128880.0
2023-05-27T16:07:08.437Z,128870.0
2023-05-27T16:12:08.514Z,128860.0
2023-05-27T16:17:08.441Z,128890.0
2023-05-27T16:22:08.454Z,128940.0
2023-05-27T16:27:08.445Z,128980.0
2023-05-27T16:32:08.656Z,128990.0
2023-05-27T16:37:08.486Z,128970.0
2023-05-27T16:42:08.455Z,129030.0
2023-05-27T16:47:08.446Z,129020.0
2023-05-27T16:52:08.451Z,128980.0
2023-05-27T16:57:08.465Z,128960.0
2023-05-27T17:02:08.460Z,128990.0
2023-05-27T17:07:08.460Z,128980.0
2023-05-27T17:12:08.470Z,128990.0
2023-05-27T17:17:08.480Z,128950.0
2023-05-27T17:22:08.463Z,128990.0
2023-05-27T17:27:08.472Z,129060.0
2023-05-27T17:32:08.465Z,129070.0
2023-05-27T17:37:08.481Z,129030.0
2023-05-27T17:42:08.494Z,129020.0
2023-05-27T17:47:08.538Z,129080.0
2023-05-27T17:52:20.398Z,129140.0
2023-05-27T17:57:08.481Z,129190.0
2023-05-27T18:02:08.512Z,129260.0
2023-05-27T18:07:08.485Z,129280.0
2023-05-27T18:12:08.483Z,129330.0
2023-05-27T18:17:08.482Z,129330.0
2023-05-27T18:22:08.501Z,129320.0
2023-05-27T18:27:08.488Z,129340.0
2023-05-27T18:32:08.492Z,129410.0
2023-05-27T18:37:08.489Z,129460.0
2023-05-27T18:42:08.517Z,129500.0
2023-05-27T18:47:08.524Z,129540.0
2023-05-27T18:52:08.492Z,129620.0
2023-05-27T18:57:08.509Z,129650.0
2023-05-27T19:02:08.501Z,129680.0
2023-05-27T19:07:08.504Z,129740.0
2023-05-27T19:17:08.524Z,129860.0
2023-05-27T19:22:08.500Z,129920.0
2023-05-27T19:27:08.501Z,129960.0
2023-05-27T19:32:08.555Z,130010.0
2023-05-27T19:37:08.506Z,130060.0
2023-05-27T19:42:08.504Z,130100.0
2023-05-27T19:47:08.714Z,130160.0
2023-05-27T19:52:08.525Z,130200.0
2023-05-27T19:57:08.497Z,130250.0
2023-05-27T20:02:08.553Z,130280.0
2023-05-27T20:07:08.525Z,130300.0
2023-05-27T20:12:08.609Z,130330.0
2023-05-27T20:17:08.634Z,130360.0
2023-05-27T20:22:08.514Z,130400.0
2023-05-27T20:27:08.582Z,130440.0
2023-05-27T20:32:08.527Z,130470.0
2023-05-27T20:37:08.541Z,130490.0
2023-05-27T20:42:08.528Z,130510.0
2023-05-27T20:47:08.531Z,130530.0
2023-05-27T20:52:08.524Z,130560.0
2023-05-27T20:57:08.545Z,130580.0
2023-05-27T21:02:08.602Z,130600.0
2023-05-27T21:07:08.549Z,130620.0
2023-05-27T21:12:08.538Z,130650.0
2023-05-27T21:17:08.543Z,130660.0
2023-05-27T21:22:08.539Z,130690.0
2023-05-27T21:27:10.367Z,130700.0
2023-05-27T21:32:08.668Z,130760.0
2023-05-27T21:37:08.553Z,130800.0
2023-05-27T21:42:08.547Z,130840.0
2023-05-27T21:47:08.592Z,130860.0
2023-05-27T21:52:08.534Z,130900.0
2023-05-27T21:57:08.544Z,130940.0
2023-05-27T22:02:08.566Z,130970.0
2023-05-27T22:07:08.546Z,131000.0
2023-05-27T22:12:08.543Z,131030.0
2023-05-27T22:17:08.548Z,131070.0
2023-05-27T22:22:08.544Z,131090.0
2023-05-27T22:27:08.568Z,131100.0
2023-05-27T22:32:08.557Z,131120.0
2023-05-27T22:37:08.546Z,131150.0
2023-05-27T22:42:08.574Z,131160.0
2023-05-27T22:47:08.618Z,131180.0
2023-05-27T22:52:08.562Z,131180.0
2023-05-27T22:57:08.561Z,131190.0
2023-05-27T23:02:08.653Z,131230.0
2023-05-27T23:07:08.563Z,131260.0
2023-05-27T23:12:08.575Z,131290.0
2023-05-27T23:17:08.580Z,131310.0
2023-05-27T23:22:08.584Z,131330.0
2023-05-27T23:27:08.571Z,131340.0
2023-05-27T23:32:08.591Z,131350.0
2023-05-27T23:37:08.576Z,131360.0
2023-05-27T23:42:08.581Z,131360.0
2023-05-27T23:47:08.565Z,131360.0
2023-05-27T23:52:08.602Z,131360.0
2023-05-27T23:57:08.575Z,131350.0
